createdAt,value
2022-08-01T00:00:50.753Z,50.03
2022-08-01T00:01:55.321Z,50.09
2022-08-01T00:03:00.212Z,50.09
2022-08-01T00:04:04.651Z,49.99
2022-08-01T00:05:09.182Z,50.19
2022-08-01T00:06:13.626Z,49.66
2022-08-01T00:07:18.015Z,50.29
2022-08-01T00:08:22.403Z,50.33
2022-08-01T00:09:26.781Z,50.71
2022-08-01T00:10:31.468Z,50.09
2022-08-01T00:11:35.921Z,50.42
2022-08-01T00:12:40.325Z,50.6
2022-08-01T00:13:44.715Z,50.3
2022-08-01T00:14:49.095Z,50.52
2022-08-01T00:15:56.402Z,50.43
2022-08-01T00:17:08.505Z,50.7
2022-08-01T00:18:12.943Z,50.27
2022-08-01T00:19:17.330Z,50.34
2022-08-01T00:20:21.755Z,50.54
2022-08-01T00:21:26.225Z,50.27
2022-08-01T00:22:30.648Z,50.48
2022-08-01T00:23:35.037Z,50.29
2022-08-01T00:24:39.432Z,50.38
2022-08-01T00:25:46.526Z,50.59
2022-08-01T00:26:50.927Z,50.33
2022-08-01T00:27:55.658Z,49.82
2022-08-01T00:29:00.182Z,50.31
2022-08-01T00:30:16.134Z,50.18
2022-08-01T00:31:23.262Z,50.2
2022-08-01T00:32:27.668Z,50.09
2022-08-01T00:33:32.064Z,50.67
2022-08-01T00:34:36.489Z,50.62
2022-08-01T00:35:40.861Z,50.26
2022-08-01T00:36:45.264Z,49.68
2022-08-01T00:37:49.662Z,50.38
2022-08-01T00:38:54.058Z,50.09
2022-08-01T00:39:58.463Z,50.1
2022-08-01T00:41:02.855Z,49.74
2022-08-01T00:42:08.294Z,50.09
2022-08-01T00:43:12.735Z,49.96
2022-08-01T00:44:17.144Z,49.81
2022-08-01T00:45:21.535Z,50.14
2022-08-01T00:46:25.935Z,49.96
2022-08-01T00:47:30.324Z,49.89
2022-08-01T00:48:34.710Z,49.71
2022-08-01T00:49:39.492Z,49.79
2022-08-01T00:50:43.928Z,50.01
2022-08-01T00:51:48.388Z,49.99
2022-08-01T00:52:53.406Z,49.97
2022-08-01T00:54:00.325Z,49.92
2022-08-01T00:55:04.732Z,49.79
2022-08-01T00:56:09.143Z,50.1
2022-08-01T00:57:16.089Z,50.13
2022-08-01T00:58:32.288Z,50.74
2022-08-01T00:59:39.810Z,50.66
2022-08-01T01:00:56.312Z,50.46
2022-08-01T01:02:02.097Z,50.79
2022-08-01T01:03:06.794Z,50.57
2022-08-01T01:04:11.187Z,50.69
2022-08-01T01:05:15.593Z,50.77
2022-08-01T01:06:19.998Z,50.53
2022-08-01T01:07:24.414Z,50.46
2022-08-01T01:08:28.796Z,50.28
2022-08-01T01:09:33.189Z,50.23
2022-08-01T01:10:37.622Z,50.52
2022-08-01T01:11:42.041Z,50.36
2022-08-01T01:12:51.710Z,50.34
2022-08-01T01:13:56.127Z,50.24
2022-08-01T01:15:00.570Z,50.17
2022-08-01T01:16:04.992Z,50.21
2022-08-01T01:17:09.415Z,50.56
2022-08-01T01:18:13.819Z,50.71
2022-08-01T01:19:18.206Z,50.39
2022-08-01T01:20:22.612Z,50.71
2022-08-01T01:21:27.083Z,51.05
2022-08-01T01:22:31.461Z,51.07
2022-08-01T01:23:35.875Z,50.69
2022-08-01T01:24:40.266Z,50.12
2022-08-01T01:25:44.673Z,50.47
2022-08-01T01:26:49.071Z,50.43
2022-08-01T01:27:53.479Z,50.49
2022-08-01T01:28:57.860Z,50.25
2022-08-01T01:30:03.317Z,50.37
2022-08-01T01:31:11.972Z,50.46
2022-08-01T01:32:16.359Z,50.45
2022-08-01T01:33:20.754Z,50.65
2022-08-01T01:34:26.320Z,50.39
2022-08-01T01:35:32.775Z,50.47
2022-08-01T01:36:37.163Z,50.11
2022-08-01T01:37:41.557Z,50.52
2022-08-01T01:38:45.938Z,50.46
2022-08-01T01:39:56.431Z,50.54
2022-08-01T01:41:00.831Z,49.97
2022-08-01T01:42:06.511Z,50.2
2022-08-01T01:43:11.115Z,49.8
2022-08-01T01:44:15.525Z,49.78
2022-08-01T01:45:19.902Z,49.7
2022-08-01T01:46:24.310Z,49.59
2022-08-01T01:47:28.722Z,49.33
2022-08-01T01:48:33.124Z,49.93
2022-08-01T01:49:37.819Z,49.7
2022-08-01T01:50:42.254Z,49.67
2022-08-01T01:52:04.491Z,49.66
2022-08-01T01:53:17.003Z,49.62
2022-08-01T01:54:21.383Z,49.44
2022-08-01T01:55:25.765Z,49.74
2022-08-01T01:56:30.163Z,49.41
2022-08-01T01:57:34.599Z,49.62
2022-08-01T01:58:38.984Z,49.45
2022-08-01T01:59:43.402Z,49.63
2022-08-01T02:00:48.047Z,49.53
2022-08-01T02:02:11.414Z,49.54
2022-08-01T02:03:15.948Z,49.44
2022-08-01T02:04:20.369Z,49.55
2022-08-01T02:05:24.793Z,49.43
2022-08-01T02:06:29.190Z,49.54
2022-08-01T02:07:33.598Z,49.41
2022-08-01T02:08:38.003Z,49.49
2022-08-01T02:09:42.585Z,49.34
2022-08-01T02:10:46.965Z,49.43
2022-08-01T02:12:12.161Z,49.56
2022-08-01T02:13:16.763Z,49.74
2022-08-01T02:14:24.717Z,49.56
2022-08-01T02:15:29.101Z,49.55
2022-08-01T02:16:33.502Z,49.49
2022-08-01T02:17:37.890Z,49.49
2022-08-01T02:18:42.287Z,49.5
2022-08-01T02:19:46.726Z,49.63
2022-08-01T02:20:55.916Z,49.47
2022-08-01T02:22:00.344Z,49.49
2022-08-01T02:23:04.748Z,49.5
2022-08-01T02:24:09.145Z,49.76
2022-08-01T02:25:13.578Z,49.36
2022-08-01T02:26:17.985Z,49.35
2022-08-01T02:27:22.381Z,49.6
2022-08-01T02:28:29.556Z,49.56
2022-08-01T02:29:33.990Z,49.42
2022-08-01T02:30:38.383Z,49.47
2022-08-01T02:31:42.786Z,49.6
2022-08-01T02:32:47.169Z,49.55
2022-08-01T02:33:51.643Z,49.81
2022-08-01T02:34:56.136Z,49.89
2022-08-01T02:36:34.707Z,49.77
2022-08-01T02:37:47.991Z,50.06
2022-08-01T02:38:52.376Z,49.84
2022-08-01T02:39:56.758Z,49.73
2022-08-01T02:41:01.126Z,49.76
2022-08-01T02:42:06.667Z,49.54
2022-08-01T02:43:11.476Z,49.77
2022-08-01T02:44:15.853Z,49.64
2022-08-01T02:45:20.256Z,49.69
2022-08-01T02:46:24.644Z,49.68
2022-08-01T02:47:29.094Z,49.92
2022-08-01T02:48:35.946Z,49.77
2022-08-01T02:49:40.437Z,49.48
2022-08-01T02:50:44.855Z,49.46
2022-08-01T02:51:49.267Z,49.6
2022-08-01T02:52:53.666Z,49.4
2022-08-01T02:53:58.695Z,49.26
2022-08-01T02:55:03.140Z,49.32
2022-08-01T02:56:07.546Z,49.34
2022-08-01T02:57:18.153Z,49.45
2022-08-01T02:58:31.509Z,49.65
2022-08-01T02:59:36.031Z,49.31
2022-08-01T03:00:42.668Z,49.48
2022-08-01T03:01:48.832Z,49.47
2022-08-01T03:02:53.635Z,49.63
2022-08-01T03:03:58.057Z,49.51
2022-08-01T03:05:02.472Z,49.44
2022-08-01T03:06:06.867Z,49.45
2022-08-01T03:07:11.291Z,49.33
2022-08-01T03:08:17.026Z,49.1
2022-08-01T03:09:21.450Z,49.32
2022-08-01T03:10:25.925Z,49.31
2022-08-01T03:11:31.191Z,49.38
2022-08-01T03:12:35.643Z,48.93
2022-08-01T03:13:40.024Z,49.41
2022-08-01T03:14:44.440Z,49.07
2022-08-01T03:15:49.263Z,49.29
2022-08-01T03:16:53.649Z,49.35
2022-08-01T03:17:58.062Z,49.21
2022-08-01T03:19:02.472Z,49.46
2022-08-01T03:20:06.912Z,49.72
2022-08-01T03:21:11.395Z,49.67
2022-08-01T03:22:15.818Z,49.67
2022-08-01T03:23:20.217Z,49.53
2022-08-01T03:24:26.664Z,49.75
2022-08-01T03:25:31.072Z,49.66
2022-08-01T03:26:35.480Z,49.69
2022-08-01T03:27:39.904Z,49.63
2022-08-01T03:28:44.319Z,49.83
2022-08-01T03:29:48.744Z,49.76
2022-08-01T03:30:53.157Z,49.72
2022-08-01T03:31:57.546Z,49.8
2022-08-01T03:33:01.954Z,49.84
2022-08-01T03:34:08.202Z,49.75
2022-08-01T03:35:12.585Z,49.85
2022-08-01T03:36:16.968Z,49.8
2022-08-01T03:37:21.388Z,49.79
2022-08-01T03:38:25.817Z,49.61
2022-08-01T03:39:30.288Z,49.11
2022-08-01T03:40:34.688Z,48.28
2022-08-01T03:41:39.093Z,48.31
2022-08-01T03:42:47.688Z,48.79
2022-08-01T03:43:52.098Z,48.72
2022-08-01T03:44:56.485Z,48.62
2022-08-01T03:46:00.860Z,48.73
2022-08-01T03:47:05.497Z,48.7
2022-08-01T03:48:09.894Z,48.89
2022-08-01T03:49:14.490Z,48.74
2022-08-01T03:50:18.880Z,48.58
2022-08-01T03:51:23.253Z,48.81
2022-08-01T03:52:28.849Z,48.89
2022-08-01T03:53:33.215Z,49.01
2022-08-01T03:54:37.665Z,49.19
2022-08-01T03:55:42.047Z,49.12
2022-08-01T03:56:46.437Z,49.01
2022-08-01T03:57:50.862Z,48.94
2022-08-01T03:58:55.257Z,49.06
2022-08-01T03:59:59.768Z,49.24
2022-08-01T04:01:04.655Z,49.04
2022-08-01T04:02:09.869Z,49.22
2022-08-01T04:03:14.250Z,49.24
2022-08-01T04:04:18.651Z,49.18
2022-08-01T04:05:23.065Z,49.06
2022-08-01T04:06:27.504Z,49.11
2022-08-01T04:07:31.894Z,49.1
2022-08-01T04:08:36.284Z,49.19
2022-08-01T04:09:43.769Z,49.31
2022-08-01T04:10:51.544Z,49.11
2022-08-01T04:11:57.358Z,49.25
2022-08-01T04:13:01.751Z,49.3
2022-08-01T04:14:11.254Z,49.19
2022-08-01T04:15:15.656Z,49.17
2022-08-01T04:16:20.063Z,49.36
2022-08-01T04:17:24.485Z,49.2
2022-08-01T04:18:28.877Z,49.12
2022-08-01T04:19:33.288Z,49.42
2022-08-01T04:20:38.649Z,49.27
2022-08-01T04:21:43.050Z,49.41
2022-08-01T04:22:47.446Z,49.34
2022-08-01T04:23:54.868Z,49.28
2022-08-01T04:24:59.357Z,49.32
2022-08-01T04:26:03.753Z,49.36
2022-08-01T04:27:08.223Z,49.55
2022-08-01T04:28:12.632Z,49.68
2022-08-01T04:29:17.081Z,49.65
2022-08-01T04:30:23.073Z,49.69
2022-08-01T04:31:27.452Z,49.41
2022-08-01T04:32:31.846Z,49.72
2022-08-01T04:33:36.264Z,49.75
2022-08-01T04:34:40.849Z,49.75
2022-08-01T04:36:06.145Z,49.79
2022-08-01T04:37:10.944Z,49.48
2022-08-01T04:38:17.557Z,49.69
2022-08-01T04:39:21.972Z,49.62
2022-08-01T04:40:26.483Z,49.56
2022-08-01T04:41:30.849Z,49.81
2022-08-01T04:42:35.710Z,49.59
2022-08-01T04:43:40.117Z,49.59
2022-08-01T04:44:45.687Z,49.56
2022-08-01T04:45:50.138Z,49.58
2022-08-01T04:46:54.559Z,49.51
2022-08-01T04:47:58.969Z,49.65
2022-08-01T04:49:03.572Z,49.75
2022-08-01T04:50:08.242Z,49.56
2022-08-01T04:51:12.667Z,49.55
2022-08-01T04:52:25.793Z,49.69
2022-08-01T04:53:30.578Z,49.44
2022-08-01T04:54:34.999Z,49.56
2022-08-01T04:55:39.405Z,49.54
2022-08-01T04:56:43.820Z,49.66
2022-08-01T04:57:48.238Z,49.51
2022-08-01T04:58:52.611Z,49.56
2022-08-01T04:59:57.018Z,49.67
2022-08-01T05:01:01.650Z,49.69
2022-08-01T05:02:07.141Z,49.71
2022-08-01T05:03:11.788Z,49.4
2022-08-01T05:04:16.195Z,49.44
2022-08-01T05:05:20.609Z,49.63
2022-08-01T05:06:25.306Z,49.76
2022-08-01T05:07:29.688Z,49.78
2022-08-01T05:08:34.080Z,49.66
2022-08-01T05:09:38.510Z,49.64
2022-08-01T05:10:42.939Z,49.7
2022-08-01T05:11:47.346Z,49.73
2022-08-01T05:12:51.725Z,49.7
2022-08-01T05:13:56.191Z,49.7
2022-08-01T05:15:00.565Z,49.71
2022-08-01T05:16:04.928Z,49.75
2022-08-01T05:17:09.669Z,49.85
2022-08-01T05:18:15.442Z,49.85
2022-08-01T05:19:19.826Z,49.75
2022-08-01T05:20:24.313Z,49.6
2022-08-01T05:21:28.736Z,49.76
2022-08-01T05:22:33.116Z,49.63
2022-08-01T05:23:45.526Z,49.72
2022-08-01T05:24:51.818Z,49.8
2022-08-01T05:26:00.337Z,49.82
2022-08-01T05:27:08.407Z,49.8
2022-08-01T05:28:21.249Z,49.8
2022-08-01T05:29:25.672Z,49.85
2022-08-01T05:30:30.083Z,49.82
2022-08-01T05:31:34.526Z,49.84
2022-08-01T05:32:38.915Z,49.84
2022-08-01T05:33:43.317Z,49.79
2022-08-01T05:34:47.764Z,49.87
2022-08-01T05:35:52.174Z,49.95
2022-08-01T05:37:00.145Z,49.81
2022-08-01T05:38:04.536Z,49.94
2022-08-01T05:39:08.969Z,49.96
2022-08-01T05:40:13.501Z,50.02
2022-08-01T05:41:17.884Z,49.94
2022-08-01T05:42:22.273Z,49.94
2022-08-01T05:43:31.011Z,50.35
2022-08-01T05:44:35.429Z,50.82
2022-08-01T05:45:39.846Z,51.34
2022-08-01T05:46:44.225Z,51.85
2022-08-01T05:47:48.644Z,51.72
2022-08-01T05:48:54.712Z,52.09
2022-08-01T05:49:59.156Z,51.83
2022-08-01T05:51:03.539Z,51.58
2022-08-01T05:52:09.263Z,51.91
2022-08-01T05:53:13.980Z,51.56
2022-08-01T05:54:18.450Z,51.43
2022-08-01T05:55:23.858Z,51.66
2022-08-01T05:56:33.923Z,51.32
2022-08-01T05:57:41.703Z,51.44
2022-08-01T05:58:46.081Z,51.21
2022-08-01T05:59:50.485Z,51.1
2022-08-01T06:00:54.870Z,51.11
2022-08-01T06:01:59.540Z,51.16
2022-08-01T06:03:04.027Z,51.32
2022-08-01T06:04:08.415Z,51.17
2022-08-01T06:05:15.496Z,51.13
2022-08-01T06:06:26.385Z,51.12
2022-08-01T06:07:30.816Z,50.92
2022-08-01T06:08:35.256Z,50.83
2022-08-01T06:09:39.649Z,50.69
2022-08-01T06:10:44.062Z,50.97
2022-08-01T06:11:48.480Z,50.74
2022-08-01T06:12:53.193Z,50.75
2022-08-01T06:13:57.607Z,50.83
2022-08-01T06:15:02.999Z,50.95
2022-08-01T06:16:07.416Z,50.91
2022-08-01T06:17:11.797Z,50.85
2022-08-01T06:18:16.189Z,50.84
2022-08-01T06:19:20.589Z,50.8
2022-08-01T06:20:25.046Z,50.77
2022-08-01T06:21:29.452Z,50.83
2022-08-01T06:22:34.801Z,50.95
2022-08-01T06:23:39.187Z,50.83
2022-08-01T06:24:43.616Z,50.72
2022-08-01T06:25:48.059Z,50.72
2022-08-01T06:26:52.470Z,50.74
2022-08-01T06:27:56.896Z,50.8
2022-08-01T06:29:01.332Z,50.82
2022-08-01T06:30:05.764Z,50.78
2022-08-01T06:31:10.297Z,50.62
2022-08-01T06:32:29.093Z,50.76
2022-08-01T06:33:33.489Z,50.82
2022-08-01T06:34:37.893Z,50.93
2022-08-01T06:35:42.268Z,50.74
2022-08-01T06:36:46.676Z,50.91
2022-08-01T06:37:51.138Z,51.22
2022-08-01T06:38:55.515Z,51.2
2022-08-01T06:39:59.920Z,50.92
2022-08-01T06:41:04.300Z,51.29
2022-08-01T06:42:09.530Z,51.33
2022-08-01T06:43:13.942Z,51.08
2022-08-01T06:44:18.329Z,51.61
2022-08-01T06:45:22.778Z,51.71
2022-08-01T06:46:36.076Z,51.44
2022-08-01T06:47:40.581Z,51.54
2022-08-01T06:48:44.969Z,51.54
2022-08-01T06:49:49.402Z,51.59
2022-08-01T06:50:53.788Z,51.47
2022-08-01T06:51:58.204Z,51.5
2022-08-01T06:53:02.604Z,51.84
2022-08-01T06:54:06.982Z,51.64
2022-08-01T06:55:11.377Z,51.5
2022-08-01T06:56:15.788Z,51.8
2022-08-01T06:57:20.174Z,51.81
2022-08-01T06:58:33.720Z,51.88
2022-08-01T06:59:38.091Z,52.06
2022-08-01T07:00:42.628Z,52.04
2022-08-01T07:01:47.103Z,52.08
2022-08-01T07:02:51.498Z,51.97
2022-08-01T07:03:57.135Z,52.24
2022-08-01T07:05:01.564Z,52.1
2022-08-01T07:06:08.358Z,52.03
2022-08-01T07:07:12.753Z,51.95
2022-08-01T07:08:17.153Z,52.17
2022-08-01T07:09:21.540Z,51.89
2022-08-01T07:10:26.037Z,51.87
2022-08-01T07:11:30.467Z,51.81
2022-08-01T07:12:34.992Z,51.77
2022-08-01T07:13:46.840Z,51.89
2022-08-01T07:14:51.240Z,51.92
2022-08-01T07:15:55.631Z,51.71
2022-08-01T07:17:00.005Z,51.94
2022-08-01T07:18:04.387Z,51.74
2022-08-01T07:19:08.858Z,52.06
2022-08-01T07:20:16.341Z,52.09
2022-08-01T07:21:46.222Z,51.94
2022-08-01T07:22:57.502Z,51.93
2022-08-01T07:24:16.191Z,51.88
2022-08-01T07:25:23.910Z,52.1
2022-08-01T07:26:28.336Z,52.28
2022-08-01T07:27:32.760Z,52.02
2022-08-01T07:28:45.889Z,52.27
2022-08-01T07:29:50.270Z,52.26
2022-08-01T07:30:54.686Z,52.35
2022-08-01T07:31:59.106Z,52.51
2022-08-01T07:33:03.494Z,52.48
2022-08-01T07:34:08.400Z,52.48
2022-08-01T07:35:12.816Z,52.8
2022-08-01T07:36:17.247Z,52.39
2022-08-01T07:37:50.593Z,52.47
2022-08-01T07:38:54.965Z,52.85
2022-08-01T07:39:59.387Z,52.85
2022-08-01T07:41:03.810Z,52.72
2022-08-01T07:42:11.217Z,52.79
2022-08-01T07:43:17.087Z,52.93
2022-08-01T07:44:21.495Z,52.77
2022-08-01T07:45:25.930Z,52.87
2022-08-01T07:46:30.308Z,52.75
2022-08-01T07:47:34.724Z,52.63
2022-08-01T07:48:39.145Z,52.67
2022-08-01T07:49:44.769Z,52.82
2022-08-01T07:50:49.178Z,52.5
2022-08-01T07:52:05.692Z,52.94
2022-08-01T07:53:10.085Z,53.04
2022-08-01T07:54:14.525Z,52.67
2022-08-01T07:55:19.040Z,52.69
2022-08-01T07:56:23.429Z,52.44
2022-08-01T07:57:27.833Z,52.46
2022-08-01T07:58:32.248Z,52.5
2022-08-01T07:59:36.680Z,52.65
2022-08-01T08:00:41.070Z,52.88
2022-08-01T08:01:49.521Z,52.85
2022-08-01T08:02:53.976Z,52.58
2022-08-01T08:03:58.366Z,52.92
2022-08-01T08:05:02.807Z,52.93
2022-08-01T08:06:07.232Z,52.85
2022-08-01T08:07:12.519Z,53.22
2022-08-01T08:08:16.930Z,53.14
2022-08-01T08:09:21.425Z,53.26
2022-08-01T08:10:25.868Z,52.98
2022-08-01T08:11:32.129Z,53.14
2022-08-01T08:12:36.510Z,53.34
2022-08-01T08:13:40.896Z,53.33
2022-08-01T08:14:45.312Z,53.11
2022-08-01T08:15:50.787Z,53.09
2022-08-01T08:16:55.244Z,53.25
2022-08-01T08:18:01.690Z,53.16
2022-08-01T08:19:06.391Z,53.11
2022-08-01T08:20:11.454Z,53.18
2022-08-01T08:21:15.867Z,52.99
2022-08-01T08:22:20.246Z,53.12
2022-08-01T08:23:45.550Z,53.14
2022-08-01T08:24:49.979Z,53.34
2022-08-01T08:25:54.363Z,53.14
2022-08-01T08:26:58.803Z,53.38
2022-08-01T08:28:03.206Z,53.23
2022-08-01T08:29:08.803Z,53.39
2022-08-01T08:30:13.173Z,53.37
2022-08-01T08:31:53.852Z,53.5
2022-08-01T08:32:58.388Z,53.44
2022-08-01T08:34:04.092Z,53.61
2022-08-01T08:35:08.930Z,53.58
2022-08-01T08:36:18.745Z,53.44
2022-08-01T08:37:23.224Z,53.07
2022-08-01T08:38:32.123Z,52.93
2022-08-01T08:39:44.345Z,52.85
2022-08-01T08:40:48.756Z,53.06
2022-08-01T08:41:53.138Z,53.19
2022-08-01T08:42:57.534Z,53.46
2022-08-01T08:44:01.968Z,53.12
2022-08-01T08:45:12.826Z,53.46
2022-08-01T08:46:17.237Z,53.51
2022-08-01T08:47:23.961Z,53.52
2022-08-01T08:48:30.074Z,53.18
2022-08-01T08:49:38.596Z,53.36
2022-08-01T08:50:47.986Z,53.28
2022-08-01T08:51:52.435Z,53.4
2022-08-01T08:52:56.818Z,53.23
2022-08-01T08:54:02.433Z,53.47
2022-08-01T08:55:06.828Z,53.6
2022-08-01T08:56:11.235Z,53.44
2022-08-01T08:57:16.969Z,53.6
2022-08-01T08:58:22.141Z,53.44
2022-08-01T08:59:27.776Z,53.3
2022-08-01T09:00:32.198Z,53.45
2022-08-01T09:01:36.587Z,53.63
2022-08-01T09:02:40.984Z,53.51
2022-08-01T09:03:45.393Z,53.69
2022-08-01T09:04:49.794Z,53.74
2022-08-01T09:05:54.256Z,53.61
2022-08-01T09:06:58.734Z,53.46
2022-08-01T09:08:03.149Z,53.5
2022-08-01T09:09:07.580Z,53.72
2022-08-01T09:10:13.380Z,53.63
2022-08-01T09:11:25.330Z,53.49
2022-08-01T09:12:29.860Z,53.41
2022-08-01T09:13:34.279Z,53.28
2022-08-01T09:14:38.661Z,53.86
2022-08-01T09:15:43.057Z,53.95
2022-08-01T09:16:50.953Z,53.72
2022-08-01T09:17:55.355Z,54.39
2022-08-01T09:18:59.767Z,54.38
2022-08-01T09:20:04.443Z,54.28
2022-08-01T09:21:08.857Z,54.17
2022-08-01T09:22:13.277Z,54.1
2022-08-01T09:23:17.672Z,53.77
2022-08-01T09:24:32.749Z,53.88
2022-08-01T09:25:48.999Z,55.67
2022-08-01T09:26:53.543Z,55.73
2022-08-01T09:27:57.973Z,55.67
2022-08-01T09:29:06.637Z,55.01
2022-08-01T09:30:13.247Z,54.82
2022-08-01T09:31:21.227Z,55.5
2022-08-01T09:32:36.157Z,55.06
2022-08-01T09:33:41.135Z,56.37
2022-08-01T09:34:48.389Z,54.96
2022-08-01T09:35:54.678Z,55.1
2022-08-01T09:36:59.114Z,55.31
2022-08-01T09:38:07.585Z,54.77
2022-08-01T09:39:13.537Z,54.4
2022-08-01T09:40:18.062Z,56.1
2022-08-01T09:41:23.751Z,55.61
2022-08-01T09:42:42.002Z,54.89
2022-08-01T09:43:51.036Z,54.74
2022-08-01T09:44:57.083Z,54.59
2022-08-01T09:46:01.480Z,54.69
2022-08-01T09:47:11.100Z,55.62
2022-08-01T09:48:19.825Z,55.13
2022-08-01T09:49:57.540Z,55.37
2022-08-01T09:51:11.505Z,55.67
2022-08-01T09:52:15.950Z,55.71
2022-08-01T09:53:39.054Z,55.48
2022-08-01T09:54:45.151Z,55.39
2022-08-01T09:55:50.084Z,55.76
2022-08-01T09:56:54.535Z,55.22
2022-08-01T09:57:58.983Z,55.37
2022-08-01T09:59:04.789Z,55.17
2022-08-01T10:00:19.413Z,55.21
2022-08-01T10:01:38.750Z,55.41
2022-08-01T10:02:46.745Z,54.73
2022-08-01T10:03:51.403Z,55.01
2022-08-01T10:05:08.759Z,54.52
2022-08-01T10:06:13.491Z,54.85
2022-08-01T10:07:18.118Z,54.58
2022-08-01T10:08:32.222Z,54.76
2022-08-01T10:09:42.675Z,55.1
2022-08-01T10:10:55.628Z,55.37
2022-08-01T10:12:03.322Z,55.23
2022-08-01T10:13:10.883Z,55.14
2022-08-01T10:14:22.017Z,54.81
2022-08-01T10:15:39.964Z,54.26
2022-08-01T10:17:06.668Z,54.16
2022-08-01T10:18:27.438Z,53.87
2022-08-01T10:19:34.903Z,53.71
2022-08-01T10:20:39.939Z,53.59
2022-08-01T10:22:01.190Z,53.56
2022-08-01T10:23:08.459Z,53.9
2022-08-01T10:24:14.000Z,54
2022-08-01T10:25:44.084Z,53.46
2022-08-01T10:26:51.404Z,53.58
2022-08-01T10:27:57.201Z,53.82
2022-08-01T10:29:04.042Z,53.67
2022-08-01T10:30:28.495Z,53.87
2022-08-01T10:31:35.622Z,53.84
2022-08-01T10:32:42.441Z,53.64
2022-08-01T10:33:54.623Z,53.9
2022-08-01T10:35:16.687Z,53.88
2022-08-01T10:36:50.329Z,53.67
2022-08-01T10:37:54.996Z,53.13
2022-08-01T10:38:59.456Z,53.42
2022-08-01T10:40:32.883Z,53.74
2022-08-01T10:41:42.488Z,53.45
2022-08-01T10:42:47.473Z,53.6
2022-08-01T10:43:52.207Z,53.18
2022-08-01T10:44:56.633Z,53.67
2022-08-01T10:46:02.118Z,53.24
2022-08-01T10:47:12.098Z,52.83
2022-08-01T10:48:21.592Z,53.03
2022-08-01T10:49:26.224Z,53.25
2022-08-01T10:50:33.516Z,52.83
2022-08-01T10:51:56.382Z,52.96
2022-08-01T10:53:31.363Z,53.32
2022-08-01T10:54:54.298Z,53.22
2022-08-01T10:56:03.694Z,53.17
2022-08-01T10:57:10.434Z,53.18
2022-08-01T10:58:18.963Z,54.27
2022-08-01T11:00:02.040Z,53.7
2022-08-01T11:01:11.038Z,53.68
2022-08-01T11:02:15.494Z,53.61
2022-08-01T11:03:57.713Z,53.69
2022-08-01T11:05:05.465Z,53.81
2022-08-01T11:06:10.749Z,53.97
2022-08-01T11:07:15.158Z,53.88
2022-08-01T11:08:20.428Z,54.24
2022-08-01T11:09:38.033Z,54.14
2022-08-01T11:10:44.893Z,54.21
2022-08-01T11:11:52.034Z,54.67
2022-08-01T11:12:57.475Z,54.17
2022-08-01T11:14:02.942Z,54.44
2022-08-01T11:15:07.640Z,54.52
2022-08-01T11:16:24.264Z,55.25
2022-08-01T11:17:42.445Z,54.98
2022-08-01T11:18:50.224Z,54.69
2022-08-01T11:19:57.606Z,54.89
2022-08-01T11:22:02.349Z,54.97
2022-08-01T11:23:07.059Z,55.3
2022-08-01T11:24:12.298Z,54.93
2022-08-01T11:25:20.373Z,55.17
2022-08-01T11:27:09.843Z,55.03
2022-08-01T11:28:30.012Z,54.87
2022-08-01T11:29:38.165Z,54.73
2022-08-01T11:30:44.188Z,54.92
2022-08-01T11:31:50.831Z,54.83
2022-08-01T11:33:15.366Z,55.06
2022-08-01T11:34:20.737Z,54.85
2022-08-01T11:35:25.992Z,54.99
2022-08-01T11:37:00.974Z,54.65
2022-08-01T11:38:07.521Z,54.58
2022-08-01T11:39:15.539Z,54.26
2022-08-01T11:40:19.983Z,54.43
2022-08-01T11:41:40.633Z,54.26
2022-08-01T11:42:45.053Z,54.65
2022-08-01T11:43:51.608Z,54.66
2022-08-01T11:44:56.022Z,55.15
2022-08-01T11:46:03.022Z,55.42
2022-08-01T11:47:14.326Z,55.01
2022-08-01T11:48:18.963Z,55.18
2022-08-01T11:49:25.740Z,55.66
2022-08-01T11:50:33.677Z,55.87
2022-08-01T11:51:39.195Z,57.35
2022-08-01T11:52:43.599Z,57.56
2022-08-01T11:53:48.105Z,59.28
2022-08-01T11:54:52.500Z,60.02
2022-08-01T11:55:56.941Z,60.24
2022-08-01T11:57:01.372Z,60.02
2022-08-01T11:58:06.141Z,60.51
2022-08-01T11:59:22.353Z,60.29
2022-08-01T12:00:28.088Z,59.48
2022-08-01T12:01:32.734Z,60.05
2022-08-01T12:02:37.666Z,59.33
2022-08-01T12:03:48.735Z,60.35
2022-08-01T12:04:53.365Z,59.74
2022-08-01T12:05:57.777Z,60.96
2022-08-01T12:07:02.173Z,61.03
2022-08-01T12:08:08.278Z,60.57
2022-08-01T12:09:14.253Z,60.7
2022-08-01T12:10:18.934Z,61.68
2022-08-01T12:11:24.398Z,60.55
2022-08-01T12:12:41.460Z,60.14
2022-08-01T12:13:46.874Z,60.54
2022-08-01T12:14:51.266Z,59.98
2022-08-01T12:15:59.013Z,60.15
2022-08-01T12:17:03.666Z,60.28
2022-08-01T12:18:08.148Z,59.47
2022-08-01T12:19:15.088Z,59.68
2022-08-01T12:20:19.484Z,59.44
2022-08-01T12:21:23.844Z,59.72
2022-08-01T12:22:28.273Z,60.05
2022-08-01T12:23:32.658Z,60
2022-08-01T12:24:37.088Z,60.15
2022-08-01T12:25:41.707Z,60.38
2022-08-01T12:26:46.101Z,61.6
2022-08-01T12:27:57.101Z,63.73
2022-08-01T12:29:01.636Z,63.26
2022-08-01T12:30:06.080Z,62.11
2022-08-01T12:31:10.479Z,61.55
2022-08-01T12:32:36.766Z,60.94
2022-08-01T12:33:41.150Z,60.95
2022-08-01T12:34:45.724Z,60.95
2022-08-01T12:35:50.135Z,61.04
2022-08-01T12:36:54.830Z,60.15
2022-08-01T12:37:59.270Z,59.1
2022-08-01T12:39:03.713Z,58.44
2022-08-01T12:40:08.134Z,58.31
2022-08-01T12:41:12.518Z,58.66
2022-08-01T12:42:16.920Z,58.19
2022-08-01T12:43:31.044Z,58.26
2022-08-01T12:44:35.483Z,58.67
2022-08-01T12:45:39.884Z,58.43
2022-08-01T12:46:46.618Z,59.17
2022-08-01T12:47:51.027Z,58.78
2022-08-01T12:48:55.592Z,59.45
2022-08-01T12:50:00.034Z,60.14
2022-08-01T12:51:04.606Z,59.96
2022-08-01T12:52:14.911Z,59.03
2022-08-01T12:53:19.313Z,59.6
2022-08-01T12:54:23.720Z,59.74
2022-08-01T12:55:36.275Z,60.15
2022-08-01T12:56:49.558Z,59.41
2022-08-01T12:57:53.961Z,58.87
2022-08-01T12:58:58.371Z,59.54
2022-08-01T13:00:02.741Z,59.76
2022-08-01T13:01:07.518Z,59.07
2022-08-01T13:02:12.143Z,62.32
2022-08-01T13:03:16.558Z,62.21
2022-08-01T13:04:20.958Z,60.56
2022-08-01T13:05:25.367Z,59.05
2022-08-01T13:06:29.763Z,60.28
2022-08-01T13:07:47.026Z,58.75
2022-08-01T13:08:51.412Z,59.09
2022-08-01T13:09:55.802Z,59.14
2022-08-01T13:11:00.178Z,59.81
2022-08-01T13:12:08.215Z,58.95
2022-08-01T13:13:30.398Z,59.23
2022-08-01T13:14:34.785Z,59.49
2022-08-01T13:15:44.046Z,59.35
2022-08-01T13:16:59.162Z,59.26
2022-08-01T13:18:03.571Z,58.25
2022-08-01T13:19:08.518Z,59.66
2022-08-01T13:20:12.892Z,59.52
2022-08-01T13:21:17.299Z,59.17
2022-08-01T13:22:21.733Z,58.47
2022-08-01T13:24:05.562Z,58.95
2022-08-01T13:25:11.907Z,58.32
2022-08-01T13:26:18.826Z,58.28
2022-08-01T13:27:23.255Z,57.64
2022-08-01T13:28:27.651Z,58.44
2022-08-01T13:29:32.096Z,58.11
2022-08-01T13:30:36.480Z,58.87
2022-08-01T13:31:40.865Z,58.63
2022-08-01T13:32:45.237Z,58.7
2022-08-01T13:34:02.208Z,58.41
2022-08-01T13:35:06.643Z,58.63
2022-08-01T13:36:11.134Z,58.38
2022-08-01T13:37:15.545Z,58.67
2022-08-01T13:38:20.727Z,59.23
2022-08-01T13:39:25.107Z,58.51
2022-08-01T13:40:29.775Z,58.26
2022-08-01T13:41:34.166Z,57.89
2022-08-01T13:42:38.591Z,57.45
2022-08-01T13:44:01.154Z,57.21
2022-08-01T13:45:15.520Z,56.89
2022-08-01T13:46:21.321Z,56.77
2022-08-01T13:47:33.954Z,57.91
2022-08-01T13:48:38.861Z,57
2022-08-01T13:49:44.683Z,57.4
2022-08-01T13:51:23.259Z,57.62
2022-08-01T13:52:27.709Z,57.11
2022-08-01T13:53:32.134Z,57.34
2022-08-01T13:54:36.530Z,57.59
2022-08-01T13:55:40.907Z,57.83
2022-08-01T13:56:45.307Z,57.41
2022-08-01T13:57:49.992Z,57.08
2022-08-01T13:58:54.387Z,57.18
2022-08-01T13:59:58.807Z,57.21
2022-08-01T14:01:07.175Z,58.49
2022-08-01T14:02:11.954Z,57.4
2022-08-01T14:03:16.376Z,57.39
2022-08-01T14:04:20.761Z,57.33
2022-08-01T14:05:25.155Z,57.02
2022-08-01T14:06:29.550Z,56.83
2022-08-01T14:07:34.386Z,57.47
2022-08-01T14:08:39.223Z,56.63
2022-08-01T14:10:22.273Z,57.15
2022-08-01T14:11:38.454Z,57.27
2022-08-01T14:12:48.780Z,56.77
2022-08-01T14:13:53.221Z,57.2
2022-08-01T14:14:57.842Z,56.52
2022-08-01T14:16:03.020Z,56.5
2022-08-01T14:17:07.650Z,56.63
2022-08-01T14:18:12.999Z,56.27
2022-08-01T14:19:17.405Z,56.17
2022-08-01T14:20:23.633Z,56.17
2022-08-01T14:21:28.034Z,56.51
2022-08-01T14:22:32.421Z,56.23
2022-08-01T14:23:36.803Z,55.73
2022-08-01T14:24:44.081Z,55.72